Warning: Javascript must be enabled to use all the features on this page!


Page Loading - Please Wait...

Click to hideNews Bulletins

USGS 04189260 Blanchard River at Ottawa OH

PROVISIONAL DATA SUBJECT TO REVISION

Click to hidestation-specific text
Station operated in cooperation with the Village of Ottawa and the National Streamflow Information Program.
 04189260 Blanchard River at Ottawa, OH
 LOCATION.--Lat 41°01'01", long 84°02'49", Putnam County, OH, Hydrologic 
     Unit 04100008, on right bank at downstream side of Oak Street, 200 ft. upstream 
     of B&O railroad bridge, 800 ft. upstream of SR65 bridge, 1,200 ft. southeast of 
     intersection of SR65 and US RT224 in the village of Ottawa, OH.
 DRAINAGE AREA.--628 mi2.
 PERIOD OF RECORD.--October 2009 to current water year.

Boating safety tips
Available Parameters Available Period
All 2 Available Parameters for this site
  
00065 Gage height 2014-06-03  2014-10-01
00060 Discharge 2009-10-01  2014-10-01

Graph
Graph w/ stats
Graph w/o stats
Graph w/ (up to 3) parms
Table
Tab-separated
Days  (7)
 

  -- or --
Begin date
 

End date
 

Summary of all available data for this site
Instantaneous-data availability statement
Gage height, feet
TIMESep 24Sep 25Sep 26Sep 27Sep 28Sep 29Sep 30Oct 1
00:00 EDT5.19P  5.01P  4.92P  5.03P  4.98P  4.96P  4.95P  5.15P  
00:30 EDT5.19P  4.99P  4.92P  5.03P  4.98P  4.96P  4.95P  5.14P  
01:00 EDT5.19P  4.99P  4.92P  5.03P  4.98P  4.96P  4.95P  5.14P  
01:30 EDT5.18P  4.98P  4.92P  5.03P  4.98P  4.96P  4.95P  5.13P  
02:00 EDT5.18P  4.97P  4.92P  5.02P  4.98P  4.96P  4.95P  5.13P  
02:30 EDT5.18P  4.97P  4.93P  5.02P  4.98P  4.96P  4.95P  5.12P  
03:00 EDT5.18P  4.96P  4.93P  5.02P  4.98P  4.96P  4.95P  5.12P  
03:30 EDT5.17P  4.96P  4.93P  5.02P  4.98P  4.96P  4.95P  5.11P  
04:00 EDT5.17P  4.95P  4.93P  5.02P  4.98P  4.96P  4.95P  5.10P  
04:30 EDT5.17P  4.95P  4.94P  5.02P  4.98P  4.96P  4.95P  5.10P  
05:00 EDT5.16P  4.94P  4.94P  5.01P  4.98P  4.96P  4.95P  5.10P  
05:30 EDT5.16P  4.94P  4.94P  5.01P  4.97P  4.96P  4.95P  5.09P  
06:00 EDT5.16P  4.94P  4.95P  5.01P  4.97P  4.96P  4.96P  5.09P  
06:30 EDT5.16P  4.94P  4.95P  5.01P  4.97P  4.95P  4.99P  5.08P  
07:00 EDT5.16P  4.93P  4.95P  5.01P  4.97P  4.96P  5.00P  5.07P  
07:30 EDT5.15P  4.93P  4.96P  5.01P  4.97P  4.95P  4.99P  5.07P  
08:00 EDT5.15P  4.93P  4.96P  5.01P  4.97P  4.95P  5.07P  5.07P  
08:30 EDT5.15P  4.93P  4.96P  5.01P  4.97P  4.95P  5.19P  5.06P  
09:00 EDT5.14P  4.93P  4.97P  5.01P  4.97P  4.95P  5.19P  5.06P  
09:30 EDT5.14P  4.93P  4.97P  5.01P  4.97P  4.95P  5.17P  5.05P  
10:00 EDT5.13P  4.93P  4.98P  5.01P  4.97P  4.95P  5.16P  5.05P  
10:30 EDT5.12P  4.93P  4.99P  5.01P  4.97P  4.95P  5.16P  5.05P  
11:00 EDT5.11P  4.94P  5.00P  5.00P  4.97P  4.95P  5.15P  5.05P  
11:30 EDT5.10P  4.95P  5.01P  5.00P  4.97P  4.95P  5.15P  5.04P  
12:00 EDT5.09P  4.96P  5.02P  5.00P  4.97P  4.95P  5.15P  5.04P  
12:30 EDT5.07P  4.97P  5.03P  5.00P  4.97P  4.95P  5.15P  5.04P  
13:00 EDT5.06P  4.98P  5.04P  5.00P  4.97P  4.95P  5.16P  5.04P  
13:30 EDT5.05P  4.99P  5.05P  5.00P  4.97P  4.95P  5.16P  5.03P  
14:00 EDT5.04P  4.99P  5.06P  5.00P  4.97P  4.95P  5.17P  5.03P  
14:30 EDT5.03P  5.00P  5.06P  5.00P  4.97P  4.95P  5.17P  5.03P  
15:00 EDT5.03P  5.00P  5.06P  5.00P  4.97P  4.96P  5.18P  5.03P  
15:30 EDT5.02P  5.00P  5.06P  5.00P  4.97P  4.96P  5.18P  5.03P  
16:00 EDT5.02P  4.99P  5.06P  5.00P  4.97P  4.96P  5.18P  5.03P  
16:30 EDT5.02P  4.99P  5.07P  5.00P  4.97P  4.96P  5.18P  5.03P  
17:00 EDT5.02P  4.98P  5.06P  5.00P  4.97P  4.95P  5.18P  5.02P  
17:30 EDT5.03P  4.97P  5.06P  5.00P  4.97P  4.96P  5.18P  5.02P  
18:00 EDT5.04P  4.97P  5.06P  5.00P  4.97P  4.95P  5.18P  5.02P  
18:30 EDT5.04P  4.96P  5.06P  5.00P  4.97P  4.96P  5.18P  5.02P  
19:00 EDT5.05P  4.95P  5.06P  4.99P  4.97P  4.96P  5.18P  5.02P  
19:30 EDT5.06P  4.95P  5.05P  4.99P  4.97P  4.95P  5.17P  5.03P  
20:00 EDT5.06P  4.94P  5.05P  4.99P  4.97P  4.95P  5.17P   
20:30 EDT5.06P  4.94P  5.05P  4.99P  4.97P  4.95P  5.17P   
21:00 EDT5.06P  4.93P  5.05P  4.99P  4.97P  4.95P  5.17P   
21:30 EDT5.05P  4.93P  5.04P  4.99P  4.97P  4.95P  5.17P   
22:00 EDT5.04P  4.93P  5.04P  4.99P  4.97P  4.95P  5.16P   
22:30 EDT5.03P  4.92P  5.04P  4.99P  4.96P  4.95P  5.16P   
23:00 EDT5.02P  4.93P  5.03P  4.98P  4.96P  4.95P  5.15P   
23:30 EDT5.01P  4.92P  5.03P  4.98P  4.96P  4.95P  5.15P   
COUNT4848484848484840
MAX5.195.015.075.034.984.965.195.15
MIN5.014.924.924.984.964.954.955.02

Explanation
  P  Provisional data subject to revision.